sensor_id;sensor_type;location;lat;lon;timestamp;temperature;humidity
7598;DHT22;3840;59.32098800;18.06423600;2023-03-01T00:02:21;3.00;99.90
7598;DHT22;3840;59.32098800;18.06423600;2023-03-01T00:04:47;3.00;99.90
7598;DHT22;3840;59.32098800;18.06423600;2023-03-01T00:07:13;3.00;99.90
7598;DHT22;3840;59.32098800;18.06423600;2023-03-01T00:09:39;2.90;99.90
7598;DHT22;3840;59.32098800;18.06423600;2023-03-01T00:12:06;3.00;99.90
7598;DHT22;3840;59.32098800;18.06423600;2023-03-01T00:14:32;2.90;99.90
7598;DHT22;3840;59.32098800;18.06423600;2023-03-01T00:16:57;2.90;99.90
7598;DHT22;3840;59.32098800;18.06423600;2023-03-01T00:19:23;2.80;99.90
7598;DHT22;3840;59.32098800;18.06423600;2023-03-01T00:21:49;2.70;99.90
7598;DHT22;3840;59.32098800;18.06423600;2023-03-01T00:24:15;2.70;99.90
7598;DHT22;3840;59.32098800;18.06423600;2023-03-01T00:26:42;2.70;99.90
7598;DHT22;3840;59.32098800;18.06423600;2023-03-01T00:29:08;2.60;99.90
7598;DHT22;3840;59.32098800;18.06423600;2023-03-01T00:31:34;2.70;99.90
7598;DHT22;3840;59.32098800;18.06423600;2023-03-01T00:34:03;2.60;99.90
7598;DHT22;3840;59.32098800;18.06423600;2023-03-01T00:36:32;2.60;99.90
7598;DHT22;3840;59.32098800;18.06423600;2023-03-01T00:38:59;2.60;99.90
7598;DHT22;3840;59.32098800;18.06423600;2023-03-01T00:41:25;2.50;99.90
7598;DHT22;3840;59.32098800;18.06423600;2023-03-01T00:43:55;2.60;99.90
7598;DHT22;3840;59.32098800;18.06423600;2023-03-01T00:46:24;2.40;99.90
7598;DHT22;3840;59.32098800;18.06423600;2023-03-01T00:48:50;1.40;99.90
7598;DHT22;3840;59.32098800;18.06423600;2023-03-01T00:51:24;2.40;99.90
7598;DHT22;3840;59.32098800;18.06423600;2023-03-01T00:53:56;2.40;99.90
7598;DHT22;3840;59.32098800;18.06423600;2023-03-01T00:56:22;2.40;99.90
7598;DHT22;3840;59.32098800;18.06423600;2023-03-01T00:58:48;2.40;99.90
7598;DHT22;3840;59.32098800;18.06423600;2023-03-01T01:01:20;2.40;99.90
7598;DHT22;3840;59.32098800;18.06423600;2023-03-01T01:03:51;2.50;99.90
7598;DHT22;3840;59.32098800;18.06423600;2023-03-01T01:06:23;2.50;99.90
7598;DHT22;3840;59.32098800;18.06423600;2023-03-01T01:08:50;2.40;99.90
7598;DHT22;3840;59.32098800;18.06423600;2023-03-01T01:11:16;2.40;99.90
7598;DHT22;3840;59.32098800;18.06423600;2023-03-01T01:13:44;2.40;99.90
7598;DHT22;3840;59.32098800;18.06423600;2023-03-01T01:16:10;2.30;99.90
7598;DHT22;3840;59.32098800;18.06423600;2023-03-01T01:18:36;2.20;99.90
7598;DHT22;3840;59.32098800;18.06423600;2023-03-01T01:21:10;2.30;99.90
7598;DHT22;3840;59.32098800;18.06423600;2023-03-01T01:23:37;2.40;99.90
7598;DHT22;3840;59.32098800;18.06423600;2023-03-01T01:26:05;2.40;99.90
7598;DHT22;3840;59.32098800;18.06423600;2023-03-01T01:28:31;2.30;99.90
7598;DHT22;3840;59.32098800;18.06423600;2023-03-01T01:30:56;2.40;99.90
7598;DHT22;3840;59.32098800;18.06423600;2023-03-01T01:33:22;2.40;99.90
7598;DHT22;3840;59.32098800;18.06423600;2023-03-01T01:35:48;2.30;99.90
7598;DHT22;3840;59.32098800;18.06423600;2023-03-01T01:38:13;2.40;99.90
7598;DHT22;3840;59.32098800;18.06423600;2023-03-01T01:40:49;2.30;99.90
7598;DHT22;3840;59.32098800;18.06423600;2023-03-01T01:46:00;2.20;99.90
7598;DHT22;3840;59.32098800;18.06423600;2023-03-01T01:48:42;2.30;99.90
7598;DHT22;3840;59.32098800;18.06423600;2023-03-01T01:51:17;2.30;99.90
7598;DHT22;3840;59.32098800;18.06423600;2023-03-01T01:53:47;2.20;99.90
7598;DHT22;3840;59.32098800;18.06423600;2023-03-01T01:56:16;2.20;99.90
7598;DHT22;3840;59.32098800;18.06423600;2023-03-01T01:58:44;2.10;99.90
7598;DHT22;3840;59.32098800;18.06423600;2023-03-01T02:01:11;2.10;99.90
7598;DHT22;3840;59.32098800;18.06423600;2023-03-01T02:03:39;2.10;99.90
7598;DHT22;3840;59.32098800;18.06423600;2023-03-01T02:06:26;2.00;99.90
7598;DHT22;3840;59.32098800;18.06423600;2023-03-01T02:08:59;1.90;99.90
7598;DHT22;3840;59.32098800;18.06423600;2023-03-01T02:11:26;1.90;99.90
7598;DHT22;3840;59.32098800;18.06423600;2023-03-01T02:13:53;1.90;99.90
7598;DHT22;3840;59.32098800;18.06423600;2023-03-01T02:16:21;1.80;99.90
7598;DHT22;3840;59.32098800;18.06423600;2023-03-01T02:18:47;1.80;99.90
7598;DHT22;3840;59.32098800;18.06423600;2023-03-01T02:21:42;1.80;99.90
7598;DHT22;3840;59.32098800;18.06423600;2023-03-01T02:27:11;1.70;99.90
7598;DHT22;3840;59.32098800;18.06423600;2023-03-01T02:29:37;1.70;99.90
7598;DHT22;3840;59.32098800;18.06423600;2023-03-01T02:32:04;1.60;99.90
7598;DHT22;3840;59.32098800;18.06423600;2023-03-01T02:34:31;1.60;99.90
7598;DHT22;3840;59.32098800;18.06423600;2023-03-01T02:37:04;1.60;99.90
7598;DHT22;3840;59.32098800;18.06423600;2023-03-01T02:39:38;1.60;99.90
7598;DHT22;3840;59.32098800;18.06423600;2023-03-01T02:42:14;1.50;99.90
7598;DHT22;3840;59.32098800;18.06423600;2023-03-01T02:44:41;1.40;99.90
7598;DHT22;3840;59.32098800;18.06423600;2023-03-01T02:47:07;1.30;99.90
7598;DHT22;3840;59.32098800;18.06423600;2023-03-01T02:49:36;1.30;99.90
7598;DHT22;3840;59.32098800;18.06423600;2023-03-01T02:52:12;1.30;99.90
7598;DHT22;3840;59.32098800;18.06423600;2023-03-01T02:57:30;1.20;99.90
7598;DHT22;3840;59.32098800;18.06423600;2023-03-01T02:59:59;1.20;99.90
7598;DHT22;3840;59.32098800;18.06423600;2023-03-01T03:02:29;1.10;99.90
7598;DHT22;3840;59.32098800;18.06423600;2023-03-01T03:05:12;1.00;99.90
7598;DHT22;3840;59.32098800;18.06423600;2023-03-01T03:07:42;1.00;99.90
7598;DHT22;3840;59.32098800;18.06423600;2023-03-01T03:10:12;1.00;99.90
7598;DHT22;3840;59.32098800;18.06423600;2023-03-01T03:12:38;0.90;99.90
7598;DHT22;3840;59.32098800;18.06423600;2023-03-01T03:15:06;0.90;99.90
7598;DHT22;3840;59.32098800;18.06423600;2023-03-01T03:17:38;0.90;99.90
7598;DHT22;3840;59.32098800;18.06423600;2023-03-01T03:20:06;0.90;99.90
7598;DHT22;3840;59.32098800;18.06423600;2023-03-01T03:22:36;0.80;99.90
7598;DHT22;3840;59.32098800;18.06423600;2023-03-01T03:25:02;0.80;99.90
7598;DHT22;3840;59.32098800;18.06423600;2023-03-01T03:27:28;0.80;99.90
7598;DHT22;3840;59.32098800;18.06423600;2023-03-01T03:29:53;0.70;99.90
7598;DHT22;3840;59.32098800;18.06423600;2023-03-01T03:32:19;0.80;99.90
7598;DHT22;3840;59.32098800;18.06423600;2023-03-01T03:34:45;0.80;99.90
7598;DHT22;3840;59.32098800;18.06423600;2023-03-01T03:37:10;0.80;99.90
7598;DHT22;3840;59.32098800;18.06423600;2023-03-01T03:39:56;0.80;99.90
7598;DHT22;3840;59.32098800;18.06423600;2023-03-01T03:42:22;0.90;99.90
7598;DHT22;3840;59.32098800;18.06423600;2023-03-01T03:44:48;0.80;99.90
7598;DHT22;3840;59.32098800;18.06423600;2023-03-01T03:47:14;0.80;99.90
7598;DHT22;3840;59.32098800;18.06423600;2023-03-01T03:49:39;0.70;99.90
7598;DHT22;3840;59.32098800;18.06423600;2023-03-01T03:52:05;0.70;99.90
7598;DHT22;3840;59.32098800;18.06423600;2023-03-01T03:54:39;0.80;99.90
7598;DHT22;3840;59.32098800;18.06423600;2023-03-01T03:57:06;0.70;99.90
7598;DHT22;3840;59.32098800;18.06423600;2023-03-01T03:59:31;0.70;99.90
7598;DHT22;3840;59.32098800;18.06423600;2023-03-01T04:01:57;0.60;99.90
7598;DHT22;3840;59.32098800;18.06423600;2023-03-01T04:04:23;0.60;99.90
7598;DHT22;3840;59.32098800;18.06423600;2023-03-01T04:06:48;0.50;99.90
7598;DHT22;3840;59.32098800;18.06423600;2023-03-01T04:09:14;0.40;99.90
7598;DHT22;3840;59.32098800;18.06423600;2023-03-01T04:11:40;0.30;99.90
7598;DHT22;3840;59.32098800;18.06423600;2023-03-01T04:14:06;0.40;99.90
7598;DHT22;3840;59.32098800;18.06423600;2023-03-01T04:16:31;0.40;99.90
7598;DHT22;3840;59.32098800;18.06423600;2023-03-01T04:18:57;0.40;99.90
7598;DHT22;3840;59.32098800;18.06423600;2023-03-01T04:21:25;0.30;99.90
7598;DHT22;3840;59.32098800;18.06423600;2023-03-01T04:23:51;0.20;99.90
7598;DHT22;3840;59.32098800;18.06423600;2023-03-01T04:26:19;0.20;99.90
7598;DHT22;3840;59.32098800;18.06423600;2023-03-01T04:28:45;0.20;99.90
7598;DHT22;3840;59.32098800;18.06423600;2023-03-01T04:31:16;0.10;99.90
7598;DHT22;3840;59.32098800;18.06423600;2023-03-01T04:33:52;0.10;99.90
7598;DHT22;3840;59.32098800;18.06423600;2023-03-01T04:36:19;0.10;99.90
7598;DHT22;3840;59.32098800;18.06423600;2023-03-01T04:38:45;0.10;99.90
7598;DHT22;3840;59.32098800;18.06423600;2023-03-01T04:41:15;0.10;99.90
7598;DHT22;3840;59.32098800;18.06423600;2023-03-01T04:43:41;0.00;99.90
7598;DHT22;3840;59.32098800;18.06423600;2023-03-01T04:46:10;0.00;99.90
7598;DHT22;3840;59.32098800;18.06423600;2023-03-01T04:48:37;0.00;99.90
7598;DHT22;3840;59.32098800;18.06423600;2023-03-01T04:51:04;0.10;99.90
7598;DHT22;3840;59.32098800;18.06423600;2023-03-01T04:53:30;0.20;99.90
7598;DHT22;3840;59.32098800;18.06423600;2023-03-01T04:55:56;0.10;99.90
7598;DHT22;3840;59.32098800;18.06423600;2023-03-01T04:58:26;0.10;99.90
7598;DHT22;3840;59.32098800;18.06423600;2023-03-01T05:00:53;0.10;99.90
7598;DHT22;3840;59.32098800;18.06423600;2023-03-01T05:03:19;0.10;99.90
7598;DHT22;3840;59.32098800;18.06423600;2023-03-01T05:05:47;0.00;99.90
7598;DHT22;3840;59.32098800;18.06423600;2023-03-01T05:08:14;0.00;99.90
7598;DHT22;3840;59.32098800;18.06423600;2023-03-01T05:10:51;0.10;99.90
7598;DHT22;3840;59.32098800;18.06423600;2023-03-01T05:13:18;0.20;99.90
7598;DHT22;3840;59.32098800;18.06423600;2023-03-01T05:18:14;0.00;99.90
7598;DHT22;3840;59.32098800;18.06423600;2023-03-01T05:20:40;0.00;99.90
7598;DHT22;3840;59.32098800;18.06423600;2023-03-01T05:23:06;0.00;99.90
7598;DHT22;3840;59.32098800;18.06423600;2023-03-01T05:25:35;0.00;99.90
7598;DHT22;3840;59.32098800;18.06423600;2023-03-01T05:28:06;-0.10;99.90
7598;DHT22;3840;59.32098800;18.06423600;2023-03-01T05:30:34;-0.10;99.90
7598;DHT22;3840;59.32098800;18.06423600;2023-03-01T05:33:00;-0.10;99.90
7598;DHT22;3840;59.32098800;18.06423600;2023-03-01T05:35:26;-0.10;99.90
7598;DHT22;3840;59.32098800;18.06423600;2023-03-01T05:37:53;-0.20;99.90
7598;DHT22;3840;59.32098800;18.06423600;2023-03-01T05:40:21;-0.10;99.90
7598;DHT22;3840;59.32098800;18.06423600;2023-03-01T05:42:53;0.00;99.90
7598;DHT22;3840;59.32098800;18.06423600;2023-03-01T05:45:20;-0.10;99.90
7598;DHT22;3840;59.32098800;18.06423600;2023-03-01T05:47:47;-0.20;99.90
7598;DHT22;3840;59.32098800;18.06423600;2023-03-01T05:50:19;-0.20;99.90
7598;DHT22;3840;59.32098800;18.06423600;2023-03-01T05:52:47;-0.20;99.90
7598;DHT22;3840;59.32098800;18.06423600;2023-03-01T05:55:14;-0.10;99.90
7598;DHT22;3840;59.32098800;18.06423600;2023-03-01T05:57:40;-0.20;99.90
7598;DHT22;3840;59.32098800;18.06423600;2023-03-01T06:00:07;-0.20;99.90
7598;DHT22;3840;59.32098800;18.06423600;2023-03-01T06:02:33;-0.20;99.90
7598;DHT22;3840;59.32098800;18.06423600;2023-03-01T06:04:58;-0.20;99.90
7598;DHT22;3840;59.32098800;18.06423600;2023-03-01T06:07:24;-0.20;99.90
7598;DHT22;3840;59.32098800;18.06423600;2023-03-01T06:09:50;-0.20;99.90
7598;DHT22;3840;59.32098800;18.06423600;2023-03-01T06:12:15;-0.30;99.90
7598;DHT22;3840;59.32098800;18.06423600;2023-03-01T06:14:42;-0.30;99.90
7598;DHT22;3840;59.32098800;18.06423600;2023-03-01T06:17:07;-0.30;99.90
7598;DHT22;3840;59.32098800;18.06423600;2023-03-01T06:19:33;-0.30;99.90
7598;DHT22;3840;59.32098800;18.06423600;2023-03-01T06:21:59;-0.40;99.90
7598;DHT22;3840;59.32098800;18.06423600;2023-03-01T06:24:24;-0.30;99.90
7598;DHT22;3840;59.32098800;18.06423600;2023-03-01T06:26:50;-0.30;99.90
7598;DHT22;3840;59.32098800;18.06423600;2023-03-01T06:29:18;-0.30;99.90
7598;DHT22;3840;59.32098800;18.06423600;2023-03-01T06:31:43;-0.20;99.90
7598;DHT22;3840;59.32098800;18.06423600;2023-03-01T06:34:11;-0.20;99.90
7598;DHT22;3840;59.32098800;18.06423600;2023-03-01T06:36:39;-0.10;99.90
7598;DHT22;3840;59.32098800;18.06423600;2023-03-01T06:39:05;-0.10;99.90
7598;DHT22;3840;59.32098800;18.06423600;2023-03-01T06:41:31;-0.10;99.90
7598;DHT22;3840;59.32098800;18.06423600;2023-03-01T06:43:58;-0.10;99.90
7598;DHT22;3840;59.32098800;18.06423600;2023-03-01T06:46:24;-0.10;99.90
7598;DHT22;3840;59.32098800;18.06423600;2023-03-01T06:48:50;-0.10;99.90
7598;DHT22;3840;59.32098800;18.06423600;2023-03-01T06:51:15;-0.10;99.90
7598;DHT22;3840;59.32098800;18.06423600;2023-03-01T06:53:41;-0.10;99.90
7598;DHT22;3840;59.32098800;18.06423600;2023-03-01T06:56:07;0.00;99.90
7598;DHT22;3840;59.32098800;18.06423600;2023-03-01T06:58:32;0.00;99.90
7598;DHT22;3840;59.32098800;18.06423600;2023-03-01T07:00:58;0.10;99.90
7598;DHT22;3840;59.32098800;18.06423600;2023-03-01T07:03:24;0.20;99.90
7598;DHT22;3840;59.32098800;18.06423600;2023-03-01T07:05:50;0.20;99.90
7598;DHT22;3840;59.32098800;18.06423600;2023-03-01T07:08:18;0.30;99.90
7598;DHT22;3840;59.32098800;18.06423600;2023-03-01T07:10:44;0.20;99.90
7598;DHT22;3840;59.32098800;18.06423600;2023-03-01T07:13:10;0.40;99.90
7598;DHT22;3840;59.32098800;18.06423600;2023-03-01T07:15:36;0.40;99.90
7598;DHT22;3840;59.32098800;18.06423600;2023-03-01T07:18:01;0.60;99.90
7598;DHT22;3840;59.32098800;18.06423600;2023-03-01T07:20:27;0.50;99.90
7598;DHT22;3840;59.32098800;18.06423600;2023-03-01T07:22:54;0.60;99.90
7598;DHT22;3840;59.32098800;18.06423600;2023-03-01T07:25:20;0.60;99.90
7598;DHT22;3840;59.32098800;18.06423600;2023-03-01T07:27:50;0.60;99.90
7598;DHT22;3840;59.32098800;18.06423600;2023-03-01T07:30:16;0.60;99.90
7598;DHT22;3840;59.32098800;18.06423600;2023-03-01T07:32:42;0.60;99.90
7598;DHT22;3840;59.32098800;18.06423600;2023-03-01T07:35:08;0.70;99.90
7598;DHT22;3840;59.32098800;18.06423600;2023-03-01T07:37:34;0.60;99.90
7598;DHT22;3840;59.32098800;18.06423600;2023-03-01T07:40:00;0.60;99.90
7598;DHT22;3840;59.32098800;18.06423600;2023-03-01T07:42:25;0.70;99.90
7598;DHT22;3840;59.32098800;18.06423600;2023-03-01T07:44:51;0.70;99.90
7598;DHT22;3840;59.32098800;18.06423600;2023-03-01T07:47:17;0.70;99.90
7598;DHT22;3840;59.32098800;18.06423600;2023-03-01T07:49:42;0.70;99.90
7598;DHT22;3840;59.32098800;18.06423600;2023-03-01T07:52:10;0.70;99.90
7598;DHT22;3840;59.32098800;18.06423600;2023-03-01T07:54:37;0.80;99.90
7598;DHT22;3840;59.32098800;18.06423600;2023-03-01T07:57:02;0.90;99.90
7598;DHT22;3840;59.32098800;18.06423600;2023-03-01T07:59:28;0.90;99.90
7598;DHT22;3840;59.32098800;18.06423600;2023-03-01T08:01:58;1.00;99.90
7598;DHT22;3840;59.32098800;18.06423600;2023-03-01T08:04:24;1.00;99.90
7598;DHT22;3840;59.32098800;18.06423600;2023-03-01T08:06:54;1.10;99.90
7598;DHT22;3840;59.32098800;18.06423600;2023-03-01T08:09:21;1.20;99.90
7598;DHT22;3840;59.32098800;18.06423600;2023-03-01T08:11:47;1.20;99.90
7598;DHT22;3840;59.32098800;18.06423600;2023-03-01T08:14:12;1.20;99.90
7598;DHT22;3840;59.32098800;18.06423600;2023-03-01T08:16:38;1.30;99.90
7598;DHT22;3840;59.32098800;18.06423600;2023-03-01T08:19:09;1.30;99.90
7598;DHT22;3840;59.32098800;18.06423600;2023-03-01T08:21:35;1.40;99.90
7598;DHT22;3840;59.32098800;18.06423600;2023-03-01T08:24:05;1.40;99.90
7598;DHT22;3840;59.32098800;18.06423600;2023-03-01T08:26:32;1.40;99.90
7598;DHT22;3840;59.32098800;18.06423600;2023-03-01T08:29:00;1.50;99.90
7598;DHT22;3840;59.32098800;18.06423600;2023-03-01T08:31:31;1.50;99.90
7598;DHT22;3840;59.32098800;18.06423600;2023-03-01T08:33:59;1.60;99.90
7598;DHT22;3840;59.32098800;18.06423600;2023-03-01T08:36:31;1.60;99.90
7598;DHT22;3840;59.32098800;18.06423600;2023-03-01T08:38:57;1.70;99.90
7598;DHT22;3840;59.32098800;18.06423600;2023-03-01T08:41:24;1.70;99.90
7598;DHT22;3840;59.32098800;18.06423600;2023-03-01T08:43:50;1.80;99.90
7598;DHT22;3840;59.32098800;18.06423600;2023-03-01T08:46:16;1.80;99.90
7598;DHT22;3840;59.32098800;18.06423600;2023-03-01T08:48:41;1.90;99.90
7598;DHT22;3840;59.32098800;18.06423600;2023-03-01T08:51:16;2.00;99.90
7598;DHT22;3840;59.32098800;18.06423600;2023-03-01T08:53:42;2.00;99.90
7598;DHT22;3840;59.32098800;18.06423600;2023-03-01T08:56:10;2.10;99.90
7598;DHT22;3840;59.32098800;18.06423600;2023-03-01T08:58:37;2.10;99.90
7598;DHT22;3840;59.32098800;18.06423600;2023-03-01T09:01:10;2.20;99.90
7598;DHT22;3840;59.32098800;18.06423600;2023-03-01T09:03:37;2.20;99.90
7598;DHT22;3840;59.32098800;18.06423600;2023-03-01T09:06:04;2.30;99.90
7598;DHT22;3840;59.32098800;18.06423600;2023-03-01T09:08:35;2.30;99.90
7598;DHT22;3840;59.32098800;18.06423600;2023-03-01T09:11:03;3.40;99.90
7598;DHT22;3840;59.32098800;18.06423600;2023-03-01T09:13:29;2.50;99.90
7598;DHT22;3840;59.32098800;18.06423600;2023-03-01T09:15:57;2.50;99.90
7598;DHT22;3840;59.32098800;18.06423600;2023-03-01T09:18:23;2.50;99.90
7598;DHT22;3840;59.32098800;18.06423600;2023-03-01T09:20:49;2.60;99.90
7598;DHT22;3840;59.32098800;18.06423600;2023-03-01T09:23:14;2.60;99.90
7598;DHT22;3840;59.32098800;18.06423600;2023-03-01T09:25:40;2.60;99.90
7598;DHT22;3840;59.32098800;18.06423600;2023-03-01T09:28:07;2.70;99.90
7598;DHT22;3840;59.32098800;18.06423600;2023-03-01T09:30:32;2.70;99.90
7598;DHT22;3840;59.32098800;18.06423600;2023-03-01T09:32:58;2.80;99.90
7598;DHT22;3840;59.32098800;18.06423600;2023-03-01T09:35:24;2.90;99.90
7598;DHT22;3840;59.32098800;18.06423600;2023-03-01T09:37:51;3.00;99.90
7598;DHT22;3840;59.32098800;18.06423600;2023-03-01T09:40:23;3.00;99.90
7598;DHT22;3840;59.32098800;18.06423600;2023-03-01T09:43:02;3.00;99.90
7598;DHT22;3840;59.32098800;18.06423600;2023-03-01T09:45:35;3.10;99.90
7598;DHT22;3840;59.32098800;18.06423600;2023-03-01T09:48:05;3.10;99.90
7598;DHT22;3840;59.32098800;18.06423600;2023-03-01T09:50:35;3.20;99.90
7598;DHT22;3840;59.32098800;18.06423600;2023-03-01T09:53:07;3.30;99.90
7598;DHT22;3840;59.32098800;18.06423600;2023-03-01T09:58:31;3.30;99.90
7598;DHT22;3840;59.32098800;18.06423600;2023-03-01T10:04:28;3.40;99.90
7598;DHT22;3840;59.32098800;18.06423600;2023-03-01T10:09:45;3.50;99.90
7598;DHT22;3840;59.32098800;18.06423600;2023-03-01T10:12:18;3.60;99.90
7598;DHT22;3840;59.32098800;18.06423600;2023-03-01T10:15:16;3.60;99.90
7598;DHT22;3840;59.32098800;18.06423600;2023-03-01T10:18:00;3.70;99.90
7598;DHT22;3840;59.32098800;18.06423600;2023-03-01T10:20:57;3.70;99.90
7598;DHT22;3840;59.32098800;18.06423600;2023-03-01T10:23:24;3.70;99.90
7598;DHT22;3840;59.32098800;18.06423600;2023-03-01T10:26:39;3.80;99.90
7598;DHT22;3840;59.32098800;18.06423600;2023-03-01T10:31:48;3.90;99.90
7598;DHT22;3840;59.32098800;18.06423600;2023-03-01T10:34:20;3.90;99.90
7598;DHT22;3840;59.32098800;18.06423600;2023-03-01T10:36:57;4.00;99.90
7598;DHT22;3840;59.32098800;18.06423600;2023-03-01T10:39:26;4.00;99.90
7598;DHT22;3840;59.32098800;18.06423600;2023-03-01T10:41:59;4.00;99.90
7598;DHT22;3840;59.32098800;18.06423600;2023-03-01T10:47:08;4.00;99.90
7598;DHT22;3840;59.32098800;18.06423600;2023-03-01T10:49:37;4.00;99.90
7598;DHT22;3840;59.32098800;18.06423600;2023-03-01T10:52:33;4.00;99.90
7598;DHT22;3840;59.32098800;18.06423600;2023-03-01T10:57:46;4.10;99.90
7598;DHT22;3840;59.32098800;18.06423600;2023-03-01T11:00:26;4.20;99.90
7598;DHT22;3840;59.32098800;18.06423600;2023-03-01T11:05:25;4.30;99.90
7598;DHT22;3840;59.32098800;18.06423600;2023-03-01T11:07:57;4.30;99.90
7598;DHT22;3840;59.32098800;18.06423600;2023-03-01T11:10:32;4.30;99.90
7598;DHT22;3840;59.32098800;18.06423600;2023-03-01T11:13:15;4.40;99.90
7598;DHT22;3840;59.32098800;18.06423600;2023-03-01T11:15:42;4.50;99.90
7598;DHT22;3840;59.32098800;18.06423600;2023-03-01T11:18:22;4.50;99.90
7598;DHT22;3840;59.32098800;18.06423600;2023-03-01T11:20:49;4.50;99.90
7598;DHT22;3840;59.32098800;18.06423600;2023-03-01T11:23:17;4.60;99.90
7598;DHT22;3840;59.32098800;18.06423600;2023-03-01T11:25:54;4.60;99.90
7598;DHT22;3840;59.32098800;18.06423600;2023-03-01T11:28:22;4.60;99.90
7598;DHT22;3840;59.32098800;18.06423600;2023-03-01T11:30:53;4.70;99.90
7598;DHT22;3840;59.32098800;18.06423600;2023-03-01T11:39:12;4.80;99.90
7598;DHT22;3840;59.32098800;18.06423600;2023-03-01T11:41:43;4.80;99.90
7598;DHT22;3840;59.32098800;18.06423600;2023-03-01T11:44:18;4.80;99.90
7598;DHT22;3840;59.32098800;18.06423600;2023-03-01T11:49:31;4.90;99.90
7598;DHT22;3840;59.32098800;18.06423600;2023-03-01T11:52:07;4.90;99.90
7598;DHT22;3840;59.32098800;18.06423600;2023-03-01T11:57:55;5.00;99.90
7598;DHT22;3840;59.32098800;18.06423600;2023-03-01T12:29:00;5.30;99.90
7598;DHT22;3840;59.32098800;18.06423600;2023-03-01T12:50:23;5.60;99.90
7598;DHT22;3840;59.32098800;18.06423600;2023-03-01T12:52:56;5.60;99.90
7598;DHT22;3840;59.32098800;18.06423600;2023-03-01T12:55:40;5.60;99.90
7598;DHT22;3840;59.32098800;18.06423600;2023-03-01T13:09:50;5.80;99.90
7598;DHT22;3840;59.32098800;18.06423600;2023-03-01T13:17:55;5.90;99.90
7598;DHT22;3840;59.32098800;18.06423600;2023-03-01T13:20:32;6.00;99.90
7598;DHT22;3840;59.32098800;18.06423600;2023-03-01T13:25:33;5.90;99.90
7598;DHT22;3840;59.32098800;18.06423600;2023-03-01T13:29:21;6.00;99.90
7598;DHT22;3840;59.32098800;18.06423600;2023-03-01T13:33:48;6.20;99.90
7598;DHT22;3840;59.32098800;18.06423600;2023-03-01T13:44:25;6.30;99.90
7598;DHT22;3840;59.32098800;18.06423600;2023-03-01T13:47:16;6.50;99.90
7598;DHT22;3840;59.32098800;18.06423600;2023-03-01T13:49:53;6.50;99.90
7598;DHT22;3840;59.32098800;18.06423600;2023-03-01T13:52:35;6.40;99.90
7598;DHT22;3840;59.32098800;18.06423600;2023-03-01T13:55:05;6.50;99.90
7598;DHT22;3840;59.32098800;18.06423600;2023-03-01T13:57:37;6.40;99.90
7598;DHT22;3840;59.32098800;18.06423600;2023-03-01T14:00:24;6.20;99.90
7598;DHT22;3840;59.32098800;18.06423600;2023-03-01T14:03:22;6.40;99.90
7598;DHT22;3840;59.32098800;18.06423600;2023-03-01T14:06:13;6.50;99.90
7598;DHT22;3840;59.32098800;18.06423600;2023-03-01T14:08:42;6.50;99.90
7598;DHT22;3840;59.32098800;18.06423600;2023-03-01T14:19:28;6.80;99.90
7598;DHT22;3840;59.32098800;18.06423600;2023-03-01T14:22:18;6.90;99.90
7598;DHT22;3840;59.32098800;18.06423600;2023-03-01T14:24:54;6.90;99.90
7598;DHT22;3840;59.32098800;18.06423600;2023-03-01T14:27:25;6.90;99.90
7598;DHT22;3840;59.32098800;18.06423600;2023-03-01T14:29:57;6.90;99.90
7598;DHT22;3840;59.32098800;18.06423600;2023-03-01T14:32:28;6.90;99.90
7598;DHT22;3840;59.32098800;18.06423600;2023-03-01T14:34:56;7.00;99.90
7598;DHT22;3840;59.32098800;18.06423600;2023-03-01T14:39:52;7.00;99.90
7598;DHT22;3840;59.32098800;18.06423600;2023-03-01T14:42:20;7.00;99.90
7598;DHT22;3840;59.32098800;18.06423600;2023-03-01T14:44:50;7.10;99.90
7598;DHT22;3840;59.32098800;18.06423600;2023-03-01T14:47:31;7.10;99.90
7598;DHT22;3840;59.32098800;18.06423600;2023-03-01T14:50:01;7.10;99.90
7598;DHT22;3840;59.32098800;18.06423600;2023-03-01T14:52:40;7.00;99.90
7598;DHT22;3840;59.32098800;18.06423600;2023-03-01T14:55:16;7.00;99.90
7598;DHT22;3840;59.32098800;18.06423600;2023-03-01T14:57:48;7.00;99.90
7598;DHT22;3840;59.32098800;18.06423600;2023-03-01T15:00:28;7.00;99.90
7598;DHT22;3840;59.32098800;18.06423600;2023-03-01T15:03:07;7.10;99.90
7598;DHT22;3840;59.32098800;18.06423600;2023-03-01T15:05:35;7.10;99.90
7598;DHT22;3840;59.32098800;18.06423600;2023-03-01T15:08:03;7.10;99.90
7598;DHT22;3840;59.32098800;18.06423600;2023-03-01T15:10:35;7.90;99.90
7598;DHT22;3840;59.32098800;18.06423600;2023-03-01T15:13:12;7.10;99.90
7598;DHT22;3840;59.32098800;18.06423600;2023-03-01T15:15:42;7.10;99.90
7598;DHT22;3840;59.32098800;18.06423600;2023-03-01T15:18:21;7.00;99.90
7598;DHT22;3840;59.32098800;18.06423600;2023-03-01T15:20:49;7.10;99.90
7598;DHT22;3840;59.32098800;18.06423600;2023-03-01T15:23:36;7.00;99.90
7598;DHT22;3840;59.32098800;18.06423600;2023-03-01T15:26:02;6.90;99.90
7598;DHT22;3840;59.32098800;18.06423600;2023-03-01T15:28:34;6.90;99.90
7598;DHT22;3840;59.32098800;18.06423600;2023-03-01T15:31:23;6.90;99.90
7598;DHT22;3840;59.32098800;18.06423600;2023-03-01T15:33:51;7.00;99.90
7598;DHT22;3840;59.32098800;18.06423600;2023-03-01T15:36:32;7.00;99.90
7598;DHT22;3840;59.32098800;18.06423600;2023-03-01T15:38:59;7.00;99.90
7598;DHT22;3840;59.32098800;18.06423600;2023-03-01T15:41:26;6.90;99.90
7598;DHT22;3840;59.32098800;18.06423600;2023-03-01T15:43:53;6.90;99.90
7598;DHT22;3840;59.32098800;18.06423600;2023-03-01T15:46:33;6.90;99.90
7598;DHT22;3840;59.32098800;18.06423600;2023-03-01T15:49:04;6.90;99.90
7598;DHT22;3840;59.32098800;18.06423600;2023-03-01T15:51:36;6.80;99.90
7598;DHT22;3840;59.32098800;18.06423600;2023-03-01T15:54:10;6.80;99.90
7598;DHT22;3840;59.32098800;18.06423600;2023-03-01T15:56:38;6.70;99.90
7598;DHT22;3840;59.32098800;18.06423600;2023-03-01T15:59:03;6.70;99.90
7598;DHT22;3840;59.32098800;18.06423600;2023-03-01T16:01:30;6.70;99.90
7598;DHT22;3840;59.32098800;18.06423600;2023-03-01T16:03:56;6.80;99.90
7598;DHT22;3840;59.32098800;18.06423600;2023-03-01T16:06:23;6.80;99.90
7598;DHT22;3840;59.32098800;18.06423600;2023-03-01T16:08:49;6.80;99.90
7598;DHT22;3840;59.32098800;18.06423600;2023-03-01T16:11:17;6.80;99.90